Time;durP1;ratioP1;P1;durP2;ratioP2;P2;SDS_P1;SDS_P2;PMS_P1;PMS_P2;Temp;Humidity;BMP_temperature;BMP_pressure;BME280_temperature;BME280_humidity;BME280_pressure;Samples;Min_cycle;Max_cycle;Signal;HPM_P1;HPM_P2
2023/07/11 00:00:19;;;;;;;11.18;8.32;;;512.90;2380.80;;;;;;5076199;28;20484;-78
2023/07/11 00:02:46;;;;;;;9.95;7.50;;;537.60;2406.40;;;;;;5074334;28;20039;-78
2023/07/11 00:05:14;;;;;;;10.98;8.35;;;537.60;2406.40;;;;;;5074330;28;20046;-78
2023/07/11 00:07:41;;;;;;;11.73;7.57;;;537.60;2406.40;;;;;;5074239;28;20408;-77
2023/07/11 00:10:10;;;;;;;10.75;7.35;;;512.90;2380.80;;;;;;5075819;28;20048;-78
2023/07/11 00:12:35;;;;;;;9.82;7.60;;;512.90;2380.80;;;;;;5074142;28;20028;-78
2023/07/11 00:15:02;;;;;;;19.55;8.20;;;512.90;2380.80;;;;;;5073832;28;20502;-78
2023/07/11 00:17:28;;;;;;;8.82;7.78;;;512.80;2380.80;;;;;;5073518;28;20032;-79
2023/07/11 00:19:58;;;;;;;10.20;8.48;;;512.80;2380.80;;;;;;5073721;28;20538;-78
2023/07/11 00:22:27;;;;;;;10.35;7.55;;;512.80;2380.80;;;;;;5073894;28;20029;-78
2023/07/11 00:24:53;;;;;;;10.82;7.78;;;512.80;2380.80;;;;;;5074784;28;20029;-79
2023/07/11 00:27:20;;;;;;;10.30;7.93;;;512.80;2380.80;;;;;;5085808;28;20095;-78
2023/07/11 00:29:47;;;;;;;11.55;7.57;;;512.90;2380.80;;;;;;5094378;28;20379;-79
2023/07/11 00:32:13;;;;;;;9.60;7.38;;;512.80;2380.80;;;;;;5093628;28;20039;-79
2023/07/11 00:34:39;;;;;;;10.05;7.85;;;512.80;2380.80;;;;;;5094049;28;20047;-77
2023/07/11 00:37:05;;;;;;;11.27;8.20;;;512.70;2380.80;;;;;;5095228;28;20076;-78
2023/07/11 00:39:33;;;;;;;10.45;7.93;;;512.60;2380.80;;;;;;5097903;28;20032;-78
2023/07/11 00:41:59;;;;;;;11.13;7.82;;;512.60;2380.80;;;;;;5098895;28;20103;-77
2023/07/11 00:44:25;;;;;;;12.07;7.30;;;512.50;2380.80;;;;;;5098052;28;20070;-78
2023/07/11 00:46:52;;;;;;;10.70;7.25;;;512.60;2380.80;;;;;;5099240;28;20067;-78
2023/07/11 00:49:21;;;;;;;9.07;7.07;;;512.50;2380.80;;;;;;5099018;28;20024;-78
2023/07/11 00:51:59;;;;;;;10.30;7.10;;;512.50;2380.80;;;;;;5097739;28;20460;-77
2023/07/11 00:54:30;;;;;;;10.23;7.53;;;512.50;2380.80;;;;;;5097293;28;20024;-78
2023/07/11 00:56:58;;;;;;;12.27;7.45;;;512.50;2380.80;;;;;;5095075;28;20384;-78
2023/07/11 00:59:24;;;;;;;10.45;8.40;;;512.60;2380.80;;;;;;5093409;28;20035;-77
2023/07/11 01:02:02;;;;;;;10.25;7.60;;;512.30;2380.80;;;;;;5093140;28;20023;-78
2023/07/11 01:04:28;;;;;;;13.43;7.97;;;512.50;2380.80;;;;;;5093620;28;20032;-78
2023/07/11 01:06:54;;;;;;;10.05;7.18;;;512.50;2380.80;;;;;;5093329;28;20025;-78
2023/07/11 01:09:20;;;;;;;12.95;7.32;;;512.60;2380.80;;;;;;5094460;28;20055;-78
2023/07/11 01:11:57;;;;;;;10.00;7.80;;;512.60;2380.80;;;;;;5093253;28;20034;-78
2023/07/11 01:14:24;;;;;;;8.90;6.93;;;512.50;2380.80;;;;;;5092955;28;20093;-77
2023/07/11 01:16:50;;;;;;;11.25;7.03;;;512.30;2380.80;;;;;;5093116;28;20086;-76
2023/07/11 01:19:18;;;;;;;9.35;7.43;;;512.20;2380.80;;;;;;5093985;28;20480;-77
2023/07/11 01:21:44;;;;;;;8.95;7.38;;;512.30;2380.80;;;;;;5092790;28;20028;-78
2023/07/11 01:24:11;;;;;;;10.40;9.23;;;512.40;2380.80;;;;;;5094986;28;20028;-77
2023/07/11 01:26:37;;;;;;;46.17;41.97;;;512.30;2380.80;;;;;;5093166;28;20115;-77
2023/07/11 01:29:04;;;;;;;146.85;133.35;;;512.40;2380.80;;;;;;5092372;28;20048;-77
2023/07/11 01:31:33;;;;;;;136.40;124.20;;;512.40;2380.80;;;;;;5092737;28;20024;-77
2023/07/11 01:34:00;;;;;;;95.60;87.32;;;512.00;2380.80;;;;;;5094125;28;20051;-78
2023/07/11 01:36:27;;;;;;;41.28;37.55;;;512.40;2380.80;;;;;;5092673;28;20028;-77
2023/07/11 01:38:52;;;;;;;20.58;18.58;;;512.40;2380.80;;;;;;5092699;28;20115;-77
2023/07/11 01:41:18;;;;;;;17.90;14.13;;;512.50;2380.80;;;;;;5092511;28;20069;-77
2023/07/11 01:43:44;;;;;;;13.85;9.68;;;512.40;2380.80;;;;;;5092455;28;20019;-77
2023/07/11 01:46:10;;;;;;;11.80;9.73;;;512.30;2380.80;;;;;;5093854;28;20020;-78
2023/07/11 01:48:36;;;;;;;13.45;10.38;;;512.40;2380.80;;;;;;5092292;28;20028;-78
2023/07/11 01:51:02;;;;;;;11.82;9.25;;;512.10;2380.80;;;;;;5093578;28;20479;-78
2023/07/11 01:53:27;;;;;;;12.55;7.40;;;512.10;2380.80;;;;;;5094075;28;20036;-79
2023/07/11 01:55:59;;;;;;;11.20;7.53;;;512.30;2380.80;;;;;;5093212;28;20471;-78
2023/07/11 01:58:25;;;;;;;12.15;8.25;;;512.30;2380.80;;;;;;5073823;28;20036;-77
2023/07/11 02:00:50;;;;;;;9.80;7.30;;;512.10;2380.80;;;;;;5073146;28;20031;-77
2023/07/11 02:03:16;;;;;;;8.02;7.20;;;512.20;2380.80;;;;;;5071904;28;20036;-78
2023/07/11 02:05:42;;;;;;;11.82;7.90;;;512.20;2380.80;;;;;;5073755;28;20036;-77
2023/07/11 02:08:08;;;;;;;12.85;8.75;;;512.20;2380.80;;;;;;5073515;28;20056;-77
2023/07/11 02:10:34;;;;;;;11.35;8.80;;;512.00;2380.80;;;;;;5071727;28;20040;-77
2023/07/11 02:13:00;;;;;;;10.70;9.52;;;512.10;2380.80;;;;;;5072143;28;20028;-78
2023/07/11 02:15:26;;;;;;;11.20;9.98;;;512.10;2380.80;;;;;;5072236;28;20025;-79
2023/07/11 02:17:51;;;;;;;11.93;10.70;;;512.00;2380.80;;;;;;5072924;28;20384;-77
2023/07/11 02:20:17;;;;;;;12.38;10.52;;;512.00;2380.80;;;;;;5072070;28;20025;-77
2023/07/11 02:22:43;;;;;;;12.70;9.45;;;487.30;2380.80;;;;;;5071916;28;20082;-77
2023/07/11 02:25:09;;;;;;;10.60;8.68;;;487.30;2380.80;;;;;;5071211;28;20024;-76
2023/07/11 02:27:35;;;;;;;10.73;8.68;;;487.30;2380.80;;;;;;5071688;28;20033;-77
2023/07/11 02:30:00;;;;;;;11.85;8.38;;;487.20;2380.80;;;;;;5073364;28;20028;-76
2023/07/11 02:32:26;;;;;;;10.38;7.00;;;487.30;2380.80;;;;;;5073115;28;20024;-77
2023/07/11 02:34:52;;;;;;;9.02;7.85;;;487.30;2380.80;;;;;;5071947;28;20115;-77
2023/07/11 02:37:18;;;;;;;10.55;7.88;;;487.30;2380.80;;;;;;5072723;28;20133;-76
2023/07/11 02:39:44;;;;;;;11.07;7.75;;;487.20;2380.80;;;;;;5071425;28;20024;-77
2023/07/11 02:42:09;;;;;;;9.05;7.57;;;487.10;2380.80;;;;;;5071731;28;20029;-77
2023/07/11 02:44:35;;;;;;;8.73;7.45;;;487.00;2380.80;;;;;;5071559;28;20035;-77
2023/07/11 02:47:01;;;;;;;11.48;7.60;;;487.00;2380.80;;;;;;5071904;28;20020;-78
2023/07/11 02:49:27;;;;;;;10.50;6.90;;;487.00;2380.80;;;;;;5071666;28;20456;-78
2023/07/11 02:51:52;;;;;;;9.80;6.80;;;487.10;2380.80;;;;;;5071477;28;20028;-77
2023/07/11 02:54:18;;;;;;;8.10;6.97;;;487.00;2380.80;;;;;;5071823;28;20025;-78
2023/07/11 02:56:44;;;;;;;10.20;6.78;;;487.10;2380.80;;;;;;5073494;28;20029;-77
2023/07/11 02:59:10;;;;;;;8.20;7.05;;;487.00;2380.80;;;;;;5084195;28;20031;-77
2023/07/11 03:01:35;;;;;;;8.88;7.22;;;487.20;2380.80;;;;;;5107373;28;20040;-78
2023/07/11 03:04:02;;;;;;;13.68;6.80;;;487.30;2380.80;;;;;;5108735;28;20024;-78
2023/07/11 03:06:28;;;;;;;8.77;7.72;;;487.30;2380.80;;;;;;5091956;28;20388;-77
2023/07/11 03:08:54;;;;;;;8.25;7.20;;;487.30;2380.80;;;;;;5110777;28;20059;-77
2023/07/11 03:11:19;;;;;;;11.45;8.02;;;487.30;2380.80;;;;;;5096515;28;20032;-78
2023/07/11 03:13:45;;;;;;;9.23;7.55;;;487.30;2380.80;;;;;;5111716;28;20036;-77
2023/07/11 03:16:11;;;;;;;10.43;7.25;;;487.30;2380.80;;;;;;5111093;28;20020;-78
2023/07/11 03:18:37;;;;;;;9.18;6.93;;;487.30;2380.80;;;;;;5112322;28;20081;-77
2023/07/11 03:21:03;;;;;;;12.27;9.27;;;487.00;2380.80;;;;;;5095804;28;20024;-77
2023/07/11 03:23:30;;;;;;;14.25;7.70;;;486.90;2380.80;;;;;;5111983;28;20043;-78
2023/07/11 03:25:56;;;;;;;14.73;7.55;;;487.00;2380.80;;;;;;5096602;28;20108;-77
2023/07/11 03:28:22;;;;;;;10.88;8.27;;;486.90;2380.80;;;;;;5111964;28;20035;-78
2023/07/11 03:30:49;;;;;;;11.50;8.93;;;486.90;2380.80;;;;;;5096393;28;20028;-77
2023/07/11 03:33:15;;;;;;;13.65;7.40;;;486.80;2380.80;;;;;;5074601;28;20039;-77
2023/07/11 03:35:41;;;;;;;10.20;7.22;;;486.60;2380.80;;;;;;5074566;28;20453;-78
2023/07/11 03:38:06;;;;;;;13.23;7.78;;;486.60;2380.80;;;;;;5074778;28;20031;-77
2023/07/11 03:40:32;;;;;;;11.73;6.43;;;486.60;2380.80;;;;;;5075811;28;20037;-78
2023/07/11 03:42:58;;;;;;;8.63;7.22;;;486.70;2380.80;;;;;;5074664;28;20036;-78
2023/07/11 03:45:24;;;;;;;11.63;7.57;;;486.70;2380.80;;;;;;5074736;28;20040;-78
2023/07/11 03:47:50;;;;;;;12.52;7.63;;;486.70;2380.80;;;;;;5074450;28;20024;-78
2023/07/11 03:50:16;;;;;;;11.95;7.43;;;486.50;2380.80;;;;;;5074490;28;20028;-78
2023/07/11 03:52:42;;;;;;;10.43;6.88;;;486.70;2380.80;;;;;;5074485;28;20137;-78
2023/07/11 03:55:08;;;;;;;12.32;7.57;;;486.70;2380.80;;;;;;5075203;28;20039;-77
2023/07/11 03:57:34;;;;;;;10.82;7.55;;;486.80;2380.80;;;;;;5075366;28;20534;-78
2023/07/11 04:00:00;;;;;;;13.50;7.95;;;486.90;2380.80;;;;;;5074044;28;20028;-78
2023/07/11 04:02:26;;;;;;;15.05;8.05;;;487.00;2380.80;;;;;;5073758;28;20060;-77
2023/07/11 04:04:51;;;;;;;9.82;8.05;;;486.80;2380.80;;;;;;5075046;28;20102;-78
2023/07/11 04:07:17;;;;;;;11.68;8.43;;;486.70;2380.80;;;;;;5073448;28;20027;-77
2023/07/11 04:09:43;;;;;;;11.43;7.80;;;486.70;2380.80;;;;;;5075046;28;20040;-78
2023/07/11 04:12:10;;;;;;;12.50;9.25;;;486.60;2380.80;;;;;;5074164;28;20058;-77
2023/07/11 04:14:36;;;;;;;10.43;8.93;;;486.70;2380.80;;;;;;5073797;28;20531;-78
2023/07/11 04:17:02;;;;;;;10.60;8.77;;;486.70;2380.80;;;;;;5073820;28;20043;-78
2023/07/11 04:19:27;;;;;;;11.98;8.40;;;486.70;2380.80;;;;;;5073838;28;20456;-78
2023/07/11 04:21:53;;;;;;;9.18;7.95;;;486.80;2380.80;;;;;;5075587;28;20021;-78
2023/07/11 04:24:19;;;;;;;11.95;8.57;;;486.80;2380.80;;;;;;5075907;28;20025;-77
2023/07/11 04:26:46;;;;;;;11.05;8.05;;;486.80;2380.80;;;;;;5075264;28;20021;-78
2023/07/11 04:29:11;;;;;;;12.70;8.20;;;486.80;2380.80;;;;;;5073769;28;20024;-78
2023/07/11 04:31:37;;;;;;;8.55;7.10;;;486.80;2380.80;;;;;;5074514;28;20028;-78
2023/07/11 04:34:03;;;;;;;11.93;8.13;;;486.80;2380.80;;;;;;5073806;28;20079;-78
2023/07/11 04:36:29;;;;;;;11.75;8.10;;;486.80;2380.80;;;;;;5073821;28;20366;-78
2023/07/11 04:38:55;;;;;;;10.10;8.30;;;486.80;2380.80;;;;;;5075014;28;20082;-78
2023/07/11 04:41:21;;;;;;;11.30;8.20;;;486.90;2380.80;;;;;;5073716;28;20028;-78
2023/07/11 04:43:47;;;;;;;14.48;8.98;;;486.90;2380.80;;;;;;5073209;28;20098;-78
2023/07/11 04:46:13;;;;;;;13.38;8.65;;;486.80;2380.80;;;;;;5073363;28;20029;-78
2023/07/11 04:48:39;;;;;;;12.05;8.00;;;486.80;2380.80;;;;;;5073351;28;20070;-78
2023/07/11 04:51:07;;;;;;;11.18;7.88;;;487.00;2380.80;;;;;;5074375;28;20025;-79
2023/07/11 04:53:34;;;;;;;10.38;8.27;;;487.10;2380.80;;;;;;5073400;28;20388;-78
2023/07/11 04:56:04;;;;;;;10.90;7.50;;;487.30;2380.80;;;;;;5073283;28;20123;-78
2023/07/11 04:58:31;;;;;;;10.50;7.90;;;487.30;2380.80;;;;;;5072890;28;20070;-78
2023/07/11 05:01:06;;;;;;;13.40;7.95;;;512.10;2380.80;;;;;;5073137;28;20453;-79
2023/07/11 05:03:32;;;;;;;12.77;8.02;;;512.20;2380.80;;;;;;5074279;28;20032;-78
2023/07/11 05:05:58;;;;;;;12.52;8.57;;;512.20;2380.80;;;;;;5073029;28;20024;-79
2023/07/11 05:08:24;;;;;;;18.70;10.00;;;512.00;2380.80;;;;;;5073061;28;20549;-78
2023/07/11 05:11:01;;;;;;;20.58;13.35;;;487.30;2380.80;;;;;;5072634;28;20052;-80
2023/07/11 05:13:28;;;;;;;15.73;11.45;;;512.00;2380.80;;;;;;5072108;28;20025;-80
2023/07/11 05:16:10;;;;;;;21.58;9.73;;;512.10;2380.80;;;;;;5072987;28;20028;-79
2023/07/11 05:18:40;;;;;;;12.88;7.75;;;512.10;2380.80;;;;;;5073870;28;20096;-79
2023/07/11 05:21:10;;;;;;;12.32;8.07;;;512.20;2380.80;;;;;;5074172;28;20033;-80
2023/07/11 05:23:37;;;;;;;14.27;8.18;;;512.20;2380.80;;;;;;5074150;28;20033;-78
2023/07/11 05:26:04;;;;;;;9.93;7.93;;;512.30;2380.80;;;;;;5072561;28;20028;-79
2023/07/11 05:28:29;;;;;;;11.27;7.63;;;512.40;2380.80;;;;;;5072660;28;20376;-80
2023/07/11 05:30:56;;;;;;;9.65;7.75;;;512.40;2380.80;;;;;;5072283;28;20029;-78
2023/07/11 05:33:23;;;;;;;17.05;9.02;;;512.40;2380.80;;;;;;5072443;28;20028;-79
2023/07/11 05:39:16;;;;;;;10.68;7.75;;;512.50;2380.80;;;;;;5073803;28;20051;-80
2023/07/11 05:41:44;;;;;;;;;;;512.60;2380.80;;;;;;5074098;28;20129;-80
2023/07/11 05:44:11;;;;;;;10.30;7.60;;;512.80;2380.80;;;;;;5072567;28;19911;-78
2023/07/11 05:46:38;;;;;;;15.77;7.68;;;512.90;2380.80;;;;;;5072253;28;20029;-83
2023/07/11 05:49:05;;;;;;;9.73;7.22;;;512.90;2380.80;;;;;;5073647;28;20020;-78
2023/07/11 05:51:31;;;;;;;9.32;7.55;;;537.60;2406.40;;;;;;5073948;28;20028;-79
2023/07/11 05:53:57;;;;;;;10.73;8.02;;;512.90;2380.80;;;;;;5072120;28;20025;-78
2023/07/11 05:56:24;;;;;;;14.75;7.97;;;512.90;2380.80;;;;;;5073386;28;20052;-78
2023/07/11 05:58:51;;;;;;;9.77;7.18;;;537.60;2406.40;;;;;;5072046;28;20035;-78
2023/07/11 06:01:20;;;;;;;9.30;7.63;;;537.80;2406.40;;;;;;5073507;28;20024;-79
2023/07/11 06:03:50;;;;;;;12.43;8.45;;;537.90;2406.40;;;;;;5071812;28;20098;-78
2023/07/11 06:06:17;;;;;;;13.52;7.88;;;538.00;2406.40;;;;;;5071785;28;20024;-75
2023/07/11 06:08:42;;;;;;;12.13;7.40;;;538.00;2406.40;;;;;;5072700;28;20021;-77
2023/07/11 06:11:08;;;;;;;14.18;8.48;;;538.30;2406.40;;;;;;5072201;28;20040;-77
2023/07/11 06:13:37;;;;;;;10.30;7.45;;;538.40;2406.40;;;;;;5072141;28;20028;-77
2023/07/11 06:16:12;;;;;;;12.45;7.80;;;538.50;2406.40;;;;;;5072837;28;20024;-77
2023/07/11 06:18:38;;;;;;;10.32;7.30;;;563.20;2432.00;;;;;;5072157;28;20055;-77
2023/07/11 06:21:06;;;;;;;11.10;7.15;;;563.20;2432.00;;;;;;5073307;28;20028;-77
2023/07/11 06:23:32;;;;;;;13.25;7.75;;;563.30;2432.00;;;;;;5071658;28;20064;-77
2023/07/11 06:25:58;;;;;;;10.52;7.18;;;563.40;2432.00;;;;;;5072005;28;20380;-77
2023/07/11 06:28:24;;;;;;;9.68;7.13;;;563.60;2432.00;;;;;;5071714;28;20021;-78
2023/07/11 06:30:50;;;;;;;10.45;7.45;;;563.70;2432.00;;;;;;5071650;28;20048;-76
2023/07/11 06:33:18;;;;;;;16.08;7.78;;;563.80;2432.00;;;;;;5072902;28;20056;-78
2023/07/11 06:35:49;;;;;;;10.07;7.25;;;564.10;2432.00;;;;;;5071651;28;20032;-78
2023/07/11 06:38:15;;;;;;;11.23;7.60;;;;;;;;;;5071962;28;20032;-79
2023/07/11 06:40:46;;;;;;;10.43;7.57;;;;;;;;;;5073224;28;20017;-79
2023/07/11 06:43:13;;;;;;;19.73;7.90;;;;;;;;;;5073140;28;20036;-79
2023/07/11 06:45:39;;;;;;;12.63;7.15;;;589.20;2432.00;;;;;;5075843;28;20035;-78
2023/07/11 06:48:04;;;;;;;12.15;8.43;;;589.10;2432.00;;;;;;5075677;28;20032;-77
2023/07/11 06:50:31;;;;;;;10.60;8.68;;;;;;;;;;5075346;28;20115;-83
2023/07/11 06:52:57;;;;;;;11.95;7.53;;;;;;;;;;5075772;28;20020;-78
2023/07/11 06:55:23;;;;;;;10.27;7.30;;;;;;;;;;5075480;28;20025;-79
2023/07/11 06:57:49;;;;;;;14.55;7.88;;;589.50;2432.00;;;;;;5083805;28;20472;-79
2023/07/11 07:00:15;;;;;;;9.88;7.65;;;589.50;2432.00;;;;;;5112979;28;20101;-80
2023/07/11 07:02:41;;;;;;;17.02;7.60;;;589.50;2432.00;;;;;;5097177;28;20382;-82
2023/07/11 07:05:07;;;;;;;10.30;7.28;;;589.70;2432.00;;;;;;5111557;28;20024;-81
2023/07/11 07:07:33;;;;;;;10.73;7.82;;;614.40;2432.00;;;;;;5097119;28;20548;-82
2023/07/11 07:10:00;;;;;;;10.60;7.93;;;614.60;2432.00;;;;;;5112221;28;20060;-79
2023/07/11 07:12:26;;;;;;;9.25;6.93;;;614.70;2432.00;;;;;;5112281;28;20028;-79
2023/07/11 07:14:52;;;;;;;8.70;6.82;;;614.60;2432.00;;;;;;5112201;28;20115;-79
2023/07/11 07:17:18;;;;;;;12.57;7.18;;;614.80;2432.00;;;;;;5112612;28;20051;-79
2023/07/11 07:19:43;;;;;;;11.27;7.03;;;614.80;2432.00;;;;;;5112103;28;20032;-79
2023/07/11 07:22:09;;;;;;;10.77;6.15;;;614.90;2432.00;;;;;;5112399;28;20081;-79
2023/07/11 07:24:35;;;;;;;8.77;7.13;;;615.00;2432.00;;;;;;5122495;28;20024;-78
2023/07/11 07:27:02;;;;;;;12.57;7.13;;;615.00;2432.00;;;;;;5104744;28;20028;-80
2023/07/11 07:29:28;;;;;;;9.88;7.30;;;615.10;2432.00;;;;;;5107004;28;20130;-80
2023/07/11 07:31:54;;;;;;;13.48;6.68;;;615.30;2432.00;;;;;;5075833;28;20025;-81
2023/07/11 07:34:19;;;;;;;12.82;7.20;;;615.30;2432.00;;;;;;5076528;28;20037;-80
2023/07/11 07:36:45;;;;;;;11.52;6.50;;;640.00;2432.00;;;;;;5073267;28;20124;-80
2023/07/11 07:39:11;;;;;;;10.95;6.40;;;640.20;2432.00;;;;;;5075710;28;20017;-81
2023/07/11 07:41:37;;;;;;;9.75;6.32;;;640.20;2432.00;;;;;;5074619;28;20056;-80
2023/07/11 07:44:02;;;;;;;13.90;7.32;;;640.20;2432.00;;;;;;5074949;28;20033;-79
2023/07/11 07:46:28;;;;;;;12.18;6.38;;;640.30;2432.00;;;;;;5074347;28;20032;-81
2023/07/11 07:48:54;;;;;;;10.85;6.20;;;640.30;2432.00;;;;;;5076032;28;20032;-81
2023/07/11 07:51:20;;;;;;;9.57;6.97;;;640.40;2432.00;;;;;;5074552;28;20036;-80
2023/07/11 07:53:46;;;;;;;13.25;7.25;;;640.60;2432.00;;;;;;5073715;28;20064;-80
2023/07/11 07:56:16;;;;;;;11.07;7.13;;;640.90;2432.00;;;;;;5075556;28;20020;-80
2023/07/11 07:58:43;;;;;;;12.48;6.80;;;640.90;2432.00;;;;;;5074303;28;20117;-82
2023/07/11 08:01:08;;;;;;;13.70;7.25;;;640.90;2432.00;;;;;;5075347;28;20028;-81
2023/07/11 08:03:38;;;;;;;9.45;6.90;;;665.60;2432.00;;;;;;5074287;28;20173;-81
2023/07/11 08:06:05;;;;;;;9.75;6.95;;;665.90;2432.00;;;;;;5075574;28;20067;-79
2023/07/11 08:08:31;;;;;;;17.10;8.70;;;666.10;2432.00;;;;;;5074719;28;20032;-79
2023/07/11 08:11:01;;;;;;;13.48;7.00;;;666.30;2432.00;;;;;;5074283;28;20028;-79
2023/07/11 08:13:27;;;;;;;14.27;9.00;;;666.50;2432.00;;;;;;5073878;28;20074;-81
2023/07/11 08:15:53;;;;;;;11.48;7.70;;;666.50;2432.00;;;;;;5074126;28;20098;-80
2023/07/11 08:18:19;;;;;;;15.35;8.25;;;691.20;2432.00;;;;;;5077572;28;20415;-80
2023/07/11 08:20:45;;;;;;;16.38;11.60;;;691.20;2432.00;;;;;;5073835;28;20460;-80
2023/07/11 08:23:11;;;;;;;13.15;10.02;;;666.50;2432.00;;;;;;5075347;28;20038;-79
2023/07/11 08:25:36;;;;;;;13.50;10.07;;;691.40;2432.00;;;;;;5075349;28;20146;-81
2023/07/11 08:28:04;;;;;;;9.20;7.03;;;691.60;2432.00;;;;;;5073608;28;20029;-78
2023/07/11 08:30:37;;;;;;;13.68;10.02;;;692.00;2432.00;;;;;;5075327;28;20025;-78
2023/07/11 08:33:03;;;;;;;17.33;9.93;;;716.90;2432.00;;;;;;5073632;28;20040;-81
2023/07/11 08:35:29;;;;;;;12.18;8.43;;;;;;;;;;5073609;28;20117;-79
2023/07/11 08:37:55;;;;;;;10.85;7.82;;;;;;;;;;5073728;28;20484;-79
2023/07/11 08:40:23;;;;;;;10.88;6.47;;;;;;;;;;5074777;28;20456;-77
2023/07/11 08:42:49;;;;;;;7.97;6.13;;;717.60;2432.00;;;;;;5073366;28;20028;-78
2023/07/11 08:45:53;;;;;;;14.25;6.97;;;717.40;2432.00;;;;;;5073344;28;20048;-78
2023/07/11 08:48:41;;;;;;;9.55;6.68;;;717.40;2432.00;;;;;;5072704;28;20503;-78
2023/07/11 08:51:19;;;;;;;12.18;7.32;;;716.90;2432.00;;;;;;5085290;28;20051;-80
2023/07/11 08:54:03;;;;;;;9.30;6.28;;;717.10;2432.00;;;;;;5095218;28;20064;-79
2023/07/11 08:56:37;;;;;;;15.68;7.68;;;717.20;2432.00;;;;;;5091778;28;20032;-78
2023/07/11 08:59:14;;;;;;;13.85;7.68;;;742.40;2432.00;;;;;;5094104;28;20032;-78
2023/07/11 09:02:01;;;;;;;10.75;7.20;;;717.70;2406.40;;;;;;5091737;28;20094;-79
2023/07/11 09:04:29;;;;;;;11.38;7.05;;;;;;;;;;5109158;28;20024;-80
2023/07/11 09:06:58;;;;;;;11.90;6.93;;;;;;;;;;5093856;28;20020;-79
2023/07/11 09:09:25;;;;;;;7.05;6.18;;;;;;;;;;5092776;28;20050;-80
2023/07/11 09:12:03;;;;;;;9.85;6.38;;;;;;;;;;5092549;28;20038;-79
2023/07/11 09:14:32;;;;;;;12.20;7.68;;;;;;;;;;5093311;28;20074;-79
2023/07/11 09:17:23;;;;;;;9.43;7.10;;;743.00;2406.40;;;;;;5093093;28;20472;-79
2023/07/11 09:20:06;;;;;;;11.38;6.97;;;743.00;2406.40;;;;;;5095052;28;20499;-79
2023/07/11 09:22:53;;;;;;;10.50;6.40;;;742.90;2380.80;;;;;;5093737;28;20036;-80
2023/07/11 09:25:26;;;;;;;11.20;6.68;;;742.60;2380.80;;;;;;5095379;28;20032;-80
2023/07/11 09:27:57;;;;;;;6.97;5.70;;;742.60;2380.80;;;;;;5096670;28;20028;-80
2023/07/11 09:30:40;;;;;;;11.05;6.72;;;742.60;2355.20;;;;;;5094233;28;20024;-81
2023/07/11 09:33:28;;;;;;;12.02;6.63;;;743.10;2329.60;;;;;;5095410;28;20030;-79
2023/07/11 09:35:55;;;;;;;9.45;6.43;;;768.00;2329.60;;;;;;5094221;28;20069;-82
2023/07/11 09:38:41;;;;;;;14.27;10.30;;;;;;;;;;5093766;28;20024;-81
2023/07/11 09:41:14;;;;;;;6.82;5.45;;;;;;;;;;5094059;28;20024;-82
2023/07/11 09:43:40;;;;;;;9.38;5.70;;;;;;;;;;5092841;28;20024;-81
2023/07/11 09:46:14;;;;;;;10.05;6.63;;;768.10;2329.60;;;;;;5096111;28;20031;-82
2023/07/11 09:48:42;;;;;;;7.45;6.35;;;768.30;2304.00;;;;;;5093947;28;20052;-81
2023/07/11 09:51:28;;;;;;;9.60;6.43;;;;;;;;;;5092808;28;20028;-81
2023/07/11 09:53:55;;;;;;;15.02;7.28;;;;;;;;;;5092616;28;20032;-82
2023/07/11 09:56:22;;;;;;;9.38;5.80;;;;;;;;;;5092089;28;20043;-80
2023/07/11 09:58:52;;;;;;;8.82;5.72;;;;;;;;;;5088154;28;20033;-80
2023/07/11 10:01:22;;;;;;;6.57;5.22;;;;;;;;;;5072327;28;20123;-81
2023/07/11 10:03:48;;;;;;;10.27;7.80;;;;;;;;;;5072266;28;20124;-81
2023/07/11 10:06:44;;;;;;;9.07;6.55;;;;;;;;;;5074153;28;20021;-80
2023/07/11 10:09:29;;;;;;;8.02;5.90;;;;;;;;;;5052813;28;20040;-81
2023/07/11 10:12:05;;;;;;;12.93;5.90;;;;;;;;;;5071100;28;20033;-81
2023/07/11 10:14:35;;;;;;;11.30;5.78;;;;;;;;;;5070578;28;20021;-80
2023/07/11 10:17:14;;;;;;;9.77;6.28;;;;;;;;;;5055573;28;20059;-81
2023/07/11 10:19:40;;;;;;;9.40;6.72;;;;;;;;;;5072927;28;20025;-81
2023/07/11 10:22:14;;;;;;;14.75;6.00;;;;;;;;;;5069496;28;20040;-80
2023/07/11 10:24:40;;;;;;;11.10;9.70;;;;;;;;;;5058320;28;20025;-81
2023/07/11 10:27:10;;;;;;;9.65;6.00;;;;;;;;;;5074902;28;20036;-81
2023/07/11 10:29:48;;;;;;;7.88;5.93;;;;;;;;;;5074235;28;20056;-82
2023/07/11 10:32:40;;;;;;;6.93;5.88;;;;;;;;;;5056073;28;20085;-81
2023/07/11 10:35:10;;;;;;;7.68;5.40;;;;;;;;;;5065050;28;20067;-81
2023/07/11 10:37:42;;;;;;;7.53;5.25;;;;;;;;;;5057888;28;20116;-80
2023/07/11 10:40:14;;;;;;;7.95;5.30;;;;;;;;;;5058810;28;20060;-80
2023/07/11 10:42:43;;;;;;;14.88;9.50;;;;;;;;;;5074614;28;20115;-81
2023/07/11 10:45:17;;;;;;;15.77;6.60;;;;;;;;;;5082473;28;20044;-80
2023/07/11 10:48:04;;;;;;;10.45;6.07;;;;;;;;;;5095998;28;20081;-80
2023/07/11 10:50:50;;;;;;;12.18;6.25;;;;;;;;;;5096168;28;20039;-81
2023/07/11 10:53:25;;;;;;;8.95;6.15;;;;;;;;;;5095543;28;20033;-81
2023/07/11 10:56:01;;;;;;;12.30;7.43;;;;;;;;;;5097133;28;20043;-79
2023/07/11 10:58:27;;;;;;;12.90;8.50;;;;;;;;;;5113318;28;20524;-77
2023/07/11 11:00:52;;;;;;;12.02;7.85;;;845.70;2099.20;;;;;;5113225;28;20020;-78
2023/07/11 11:03:44;;;;;;;6.63;5.72;;;845.60;2099.20;;;;;;5096933;28;20039;-79
2023/07/11 11:06:31;;;;;;;7.80;4.90;;;845.70;2073.60;;;;;;5113322;28;20078;-80
2023/07/11 11:09:16;;;;;;;7.22;5.07;;;;;;;;;;5112225;28;20048;-80
2023/07/11 11:11:42;;;;;;;7.35;4.75;;;;;;;;;;5112742;28;20110;-81
2023/07/11 11:14:17;;;;;;;8.57;5.13;;;;;;;;;;5112773;28;20039;-79
2023/07/11 11:16:55;;;;;;;4.93;4.10;;;;;;;;;;5096610;28;20021;-79
2023/07/11 11:19:27;;;;;;;8.73;5.30;;;;;;;;;;5112660;28;20410;-80
2023/07/11 11:22:02;;;;;;;7.53;4.97;;;;;;;;;;5112592;28;20016;-81
2023/07/11 11:24:38;;;;;;;7.13;4.47;;;;;;;;;;5112162;28;20055;-82
2023/07/11 11:27:14;;;;;;;10.85;5.25;;;;;;;;;;5112550;28;20487;-81
2023/07/11 11:29:59;;;;;;;11.90;5.30;;;;;;;;;;5093905;28;20043;-81
2023/07/11 11:32:36;;;;;;;7.30;5.03;;;;;;;;;;5092120;28;20032;-80
2023/07/11 11:35:22;;;;;;;8.32;4.22;;;;;;;;;;5091949;28;20024;-80
2023/07/11 11:37:57;;;;;;;8.55;4.60;;;;;;;;;;5074543;28;20028;-80
2023/07/11 11:40:25;;;;;;;11.15;4.50;;;;;;;;;;5076030;28;20048;-80
2023/07/11 11:43:01;;;;;;;13.43;6.85;;;;;;;;;;5091561;28;20036;-79
2023/07/11 11:45:28;;;;;;;8.70;5.25;;;;;;;;;;5075954;28;20025;-80
2023/07/11 11:47:55;;;;;;;6.68;4.47;;;;;;;;;;5091761;28;20024;-80
2023/07/11 11:50:23;;;;;;;9.65;4.95;;;;;;;;;;5091630;28;20021;-79
2023/07/11 11:52:56;;;;;;;8.48;4.50;;;;;;;;;;5091597;28;20028;-81
2023/07/11 11:55:36;;;;;;;9.18;5.20;;;;;;;;;;5091512;28;20132;-82
2023/07/11 11:58:02;;;;;;;8.48;4.97;;;;;;;;;;5091781;28;20016;-79
2023/07/11 12:00:31;;;;;;;7.95;4.63;;;;;;;;;;5083569;28;20039;-80
2023/07/11 12:02:57;;;;;;;8.45;4.50;;;;;;;;;;5111489;28;20043;-82
2023/07/11 12:05:24;;;;;;;9.20;5.70;;;;;;;;;;5111269;28;20047;-79
2023/07/11 12:08:08;;;;;;;11.48;5.45;;;;;;;;;;5111733;28;20110;-81
2023/07/11 12:10:35;;;;;;;6.05;4.75;;;;;;;;;;5096978;28;20075;-80
2023/07/11 12:13:27;;;;;;;10.52;4.93;;;;;;;;;;5113770;28;20039;-81
2023/07/11 12:15:54;;;;;;;8.43;4.65;;;;;;;;;;5098190;28;20017;-81
2023/07/11 12:18:38;;;;;;;8.63;4.47;;;;;;;;;;5116443;28;20012;-81
2023/07/11 12:21:17;;;;;;;10.77;5.03;;;;;;;;;;5097400;28;20103;-82
2023/07/11 12:23:44;;;;;;;11.52;6.70;;;;;;;;;;5113344;28;20024;-83
2023/07/11 12:26:12;;;;;;;8.75;6.60;;;;;;;;;;5111458;28;20032;-82
2023/07/11 12:28:41;;;;;;;9.18;5.93;;;;;;;;;;5112013;28;20020;-82
2023/07/11 12:31:17;;;;;;;7.97;5.88;;;;;;;;;;5099442;28;20024;-80
2023/07/11 12:33:43;;;;;;;11.32;5.18;;;;;;;;;;5075566;28;20028;-82
2023/07/11 12:36:37;;;;;;;10.25;5.13;;;922.50;1843.20;;;;;;5076240;28;20031;-81
2023/07/11 12:39:20;;;;;;;7.45;4.68;;;922.00;1868.80;;;;;;5084142;28;20032;-81
2023/07/11 12:42:21;;;;;;;7.97;5.32;;;922.20;1843.20;;;;;;5082371;28;20031;-80
2023/07/11 12:44:48;;;;;;;17.10;6.53;;;922.20;1868.80;;;;;;5077045;28;20504;-80
2023/07/11 12:47:16;;;;;;;10.35;6.25;;;;;;;;;;5076590;28;20024;-80
2023/07/11 12:49:44;;;;;;;9.48;6.18;;;;;;;;;;5075566;28;20028;-81
2023/07/11 12:52:12;;;;;;;11.48;6.57;;;;;;;;;;5074852;28;20025;-80
2023/07/11 12:54:39;;;;;;;12.68;5.60;;;;;;;;;;5073705;28;20028;-79
2023/07/11 12:57:11;;;;;;;7.35;5.00;;;;;;;;;;5073578;28;20032;-80
2023/07/11 12:59:39;;;;;;;9.13;4.25;;;;;;;;;;5075322;28;20021;-80